Time;durP1;ratioP1;P1;durP2;ratioP2;P2;SDS_P1;SDS_P2;PMS_P1;PMS_P2;Temp;Humidity;BMP_temperature;BMP_pressure;BME280_temperature;BME280_humidity;BME280_pressure;Samples;Min_cycle;Max_cycle;Signal;HPM_P1;HPM_P2
2023/01/12 00:01:51;;;;;;;39.58;5.20;;;;;;;-5.27;100.00;102532.54;1633170;86;20987;-90
2023/01/12 00:04:18;;;;;;;43.50;5.22;;;;;;;-5.27;100.00;102524.66;1633087;86;21068;-88
2023/01/12 00:06:44;;;;;;;34.80;5.60;;;;;;;-5.27;100.00;102524.66;1623308;88;21102;-88
2023/01/12 00:09:11;;;;;;;32.15;5.30;;;;;;;-5.23;100.00;102527.09;1623085;88;21080;-88
2023/01/12 00:11:39;;;;;;;49.13;7.15;;;;;;;-5.23;100.00;102531.87;1623145;88;21072;-87
2023/01/12 00:14:07;;;;;;;50.10;6.40;;;;;;;-5.22;100.00;102532.23;1622853;88;21127;-88
2023/01/12 00:16:34;;;;;;;62.80;7.58;;;;;;;-5.25;100.00;102530.66;1623082;88;21546;-88
2023/01/12 00:19:19;;;;;;;64.32;9.38;;;;;;;-5.25;100.00;102531.13;1622698;88;21268;-87
2023/01/12 00:21:58;;;;;;;32.08;7.45;;;;;;;-5.25;100.00;102525.88;1565464;90;21161;-88
2023/01/12 00:24:33;;;;;;;36.75;6.58;;;;;;;-5.23;100.00;102525.30;1565238;90;21101;-88
2023/01/12 00:27:03;;;;;;;29.50;4.92;;;;;;;-5.25;100.00;102516.68;1567354;90;21087;-88
2023/01/12 00:33:09;;;;;;;41.55;6.10;;;;;;;-5.18;100.00;102511.34;1565138;91;21154;-86
2023/01/12 00:35:35;;;;;;;37.78;5.80;;;;;;;-5.21;100.00;102520.76;1565405;91;21579;-88
2023/01/12 00:38:05;;;;;;;50.25;6.53;;;;;;;-5.18;100.00;102513.97;1574407;89;21606;-87
2023/01/12 00:40:31;;;;;;;38.55;5.92;;;;;;;-5.19;100.00;102512.30;1599231;88;21062;-87
2023/01/12 00:45:42;;;;;;;41.60;6.72;;;;;;;-5.19;100.00;102530.70;1599081;89;21665;-88
2023/01/12 00:48:11;;;;;;;52.05;5.60;;;;;;;-5.16;100.00;102518.66;1599354;88;21619;-86
2023/01/12 00:50:38;;;;;;;46.42;5.45;;;;;;;-5.14;100.00;102527.28;1578629;89;21197;-91
2023/01/12 00:56:45;;;;;;;28.02;6.40;;;;;;;-5.24;100.00;102505.21;1665578;84;21219;-88
2023/01/12 00:59:11;;;;;;;28.70;5.33;;;;;;;-5.25;100.00;102512.27;1665699;86;22097;-88
2023/01/12 01:01:37;;;;;;;42.65;6.90;;;;;;;-5.24;100.00;102502.59;1665836;84;21590;-88
2023/01/12 01:04:04;;;;;;;34.43;5.17;;;;;;;-5.22;100.00;102498.07;1666070;84;21630;-89
2023/01/12 01:06:30;;;;;;;39.78;4.67;;;;;;;-5.18;100.00;102501.31;1665930;86;21524;-88
2023/01/12 01:08:56;;;;;;;42.80;5.25;;;;;;;-5.20;100.00;102504.06;1666001;84;21784;-88
2023/01/12 01:11:23;;;;;;;21.07;4.20;;;;;;;-5.18;100.00;102502.62;1665716;84;22064;-88
2023/01/12 01:13:49;;;;;;;59.73;4.72;;;;;;;-5.18;100.00;102496.89;1665909;84;21496;-87
2023/01/12 01:16:17;;;;;;;25.35;4.55;;;;;;;-5.18;100.00;102497.37;1665936;84;21535;-88
2023/01/12 01:18:43;;;;;;;34.63;4.75;;;;;;;-5.15;100.00;102497.98;1734785;80;20948;-88
2023/01/12 01:21:11;;;;;;;29.48;4.47;;;;;;;-5.11;100.00;102500.77;1763114;80;21036;-88
2023/01/12 01:23:40;;;;;;;37.05;5.90;;;;;;;-5.14;100.00;102489.17;1774492;80;21111;-86
2023/01/12 01:26:13;;;;;;;35.40;5.62;;;;;;;-5.15;100.00;102483.53;1771331;80;21057;-88
2023/01/12 01:28:40;;;;;;;29.82;4.80;;;;;;;-5.15;100.00;102484.84;1765271;80;20995;-86
2023/01/12 01:31:23;;;;;;;30.15;5.00;;;;;;;-5.07;100.00;102486.93;1715647;80;21086;-88
2023/01/12 01:33:50;;;;;;;32.38;5.47;;;;;;;-5.12;100.00;102487.73;1688146;83;27123;-88
2023/01/12 01:36:18;;;;;;;19.30;4.15;;;;;;;-5.08;100.00;102486.58;1686927;83;21082;-88
2023/01/12 01:38:47;;;;;;;34.58;5.15;;;;;;;-5.16;100.00;102492.38;1697352;83;21114;-88
2023/01/12 01:41:29;;;;;;;28.52;5.22;;;;;;;-5.14;100.00;102489.65;1682827;83;21106;-88
2023/01/12 01:44:00;;;;;;;20.02;4.47;;;;;;;-5.13;100.00;102487.37;1637629;85;21154;-88
2023/01/12 01:46:37;;;;;;;43.10;5.47;;;;;;;-5.07;100.00;102480.36;1600700;88;21734;-93
2023/01/12 01:49:23;;;;;;;33.15;5.08;;;;;;;-5.08;100.00;102489.20;1603028;87;21851;-88
2023/01/12 01:51:53;;;;;;;31.23;4.87;;;;;;;-5.09;100.00;102489.69;1503382;93;21086;-85
2023/01/12 01:54:20;;;;;;;28.00;5.20;;;;;;;-5.09;100.00;102498.02;1511014;93;21114;-86
2023/01/12 01:56:47;;;;;;;49.23;5.17;;;;;;;-5.06;100.00;102498.66;1479323;94;21094;-87
2023/01/12 01:59:18;;;;;;;43.52;6.33;;;;;;;-5.11;100.00;102496.83;1489347;95;21260;-88
2023/01/12 02:01:45;;;;;;;19.82;4.92;;;;;;;-5.09;100.00;102497.57;1482382;95;21239;-88
2023/01/12 02:04:13;;;;;;;25.37;4.37;;;;;;;-5.09;100.00;102494.94;1490422;95;21094;-89
2023/01/12 02:06:40;;;;;;;21.33;4.97;;;;;;;-5.09;100.00;102498.02;1483754;94;21112;-89
2023/01/12 02:09:25;;;;;;;30.12;5.55;;;;;;;-5.08;100.00;102497.92;1477179;95;21152;-88
2023/01/12 02:17:48;;;;;;;28.42;4.87;;;;;;;-5.06;100.00;102489.46;1459582;96;21618;-88
2023/01/12 02:24:11;;;;;;;20.32;4.28;;;;;;;-5.04;100.00;102495.91;1475429;96;21093;-86
2023/01/12 02:26:58;;;;;;;;;;;;;;;-5.02;100.00;102502.73;1473080;96;21137;-89
2023/01/12 02:29:50;;;;;;;24.52;4.75;;;;;;;-5.09;100.00;102488.38;1466849;96;21963;-88
2023/01/12 02:32:34;;;;;;;29.85;5.97;;;;;;;-5.10;100.00;102485.36;1461886;96;21145;-89
2023/01/12 02:35:08;;;;;;;29.07;5.20;;;;;;;-5.04;100.00;102484.91;1456965;97;21617;-88
2023/01/12 02:37:46;;;;;;;22.82;4.70;;;;;;;-5.10;100.00;102491.09;1463658;97;21104;-88
2023/01/12 02:40:35;;;;;;;26.55;5.53;;;;;;;-5.05;100.00;102500.33;1456889;97;21601;-88
2023/01/12 02:43:15;;;;;;;24.23;5.37;;;;;;;-5.07;100.00;102487.77;1561558;88;21256;-88
2023/01/12 02:46:03;;;;;;;29.42;5.33;;;;;;;-5.07;100.00;102481.20;1596785;88;21294;-89
2023/01/12 02:49:01;;;;;;;28.27;5.22;;;;;;;-5.08;100.00;102488.73;1592508;88;21102;-90
2023/01/12 02:51:35;;;;;;;18.92;4.58;;;;;;;-5.09;100.00;102480.48;1602828;86;21145;-89
2023/01/12 02:54:11;;;;;;;22.52;5.17;;;;;;;-5.07;100.00;102481.20;1633680;85;21054;-88
2023/01/12 02:56:53;;;;;;;27.67;5.53;;;;;;;-5.02;100.00;102486.97;1625593;86;21173;-88
2023/01/12 02:59:29;;;;;;;19.55;4.45;;;;;;;-5.06;100.00;102479.40;1645931;85;21519;-85
2023/01/12 03:02:12;;;;;;;23.42;5.40;;;;;;;-5.05;100.00;102476.67;1651168;86;21087;-88
2023/01/12 03:08:22;;;;;;;25.20;5.47;;;;;;;-4.96;100.00;102474.34;1600400;88;21175;-86
2023/01/12 03:11:03;;;;;;;19.42;5.37;;;;;;;-5.03;100.00;102465.59;1600653;88;21165;-86
2023/01/12 03:13:34;;;;;;;27.58;5.22;;;;;;;-5.05;100.00;102460.07;1586620;88;20995;-89
2023/01/12 03:16:02;;;;;;;18.32;5.20;;;;;;;-5.00;100.00;102462.34;1605556;88;21518;-85
2023/01/12 03:18:43;;;;;;;25.75;5.12;;;;;;;-4.97;100.00;102463.44;1605787;88;21232;-88
2023/01/12 03:21:23;;;;;;;19.70;4.70;;;;;;;-5.01;100.00;102452.31;1607419;88;21045;-86
2023/01/12 03:24:03;;;;;;;30.23;5.78;;;;;;;-4.96;100.00;102443.63;1582343;89;21225;-87
2023/01/12 03:26:33;;;;;;;24.67;5.25;;;;;;;-4.98;100.00;102440.26;1521488;93;21247;-87
2023/01/12 03:29:07;;;;;;;28.95;5.28;;;;;;;-4.96;100.00;102445.42;1514099;94;21626;-86
2023/01/12 03:31:33;;;;;;;24.12;4.42;;;;;;;-4.93;100.00;102439.94;1411051;100;21183;-88
2023/01/12 03:34:00;;;;;;;29.05;5.55;;;;;;;-4.93;100.00;102438.62;1415360;100;21639;-87
2023/01/12 03:36:32;;;;;;;23.83;5.42;;;;;;;-4.97;100.00;102441.95;1408836;100;21231;-88
2023/01/12 03:39:22;;;;;;;23.05;5.85;;;;;;;-4.94;100.00;102443.05;1412877;100;21218;-88
2023/01/12 03:42:05;;;;;;;23.70;5.72;;;;;;;-4.95;100.00;102429.52;1363487;104;21181;-89
2023/01/12 03:45:01;;;;;;;29.27;5.72;;;;;;;-4.95;100.00;102432.63;1369928;104;21557;-87
2023/01/12 03:47:31;;;;;;;25.08;5.70;;;;;;;-4.91;100.00;102428.81;1372432;104;21190;-87
2023/01/12 03:50:11;;;;;;;33.50;6.72;;;;;;;-4.94;100.00;102438.23;1367648;103;21256;-87
2023/01/12 03:52:40;;;;;;;25.80;5.62;;;;;;;-4.92;100.00;102429.29;1349511;104;21129;-90
2023/01/12 03:55:12;;;;;;;19.55;5.40;;;;;;;-4.95;100.00;102421.63;1346302;105;21133;-87
2023/01/12 03:57:39;;;;;;;25.90;6.10;;;;;;;-4.96;100.00;102429.17;1356283;104;21217;-91
2023/01/12 04:00:09;;;;;;;28.00;6.53;;;;;;;-4.99;100.00;102431.19;1355532;105;21187;-87
2023/01/12 04:02:36;;;;;;;24.43;6.22;;;;;;;-4.95;100.00;102436.09;1357720;104;21658;-88
2023/01/12 04:05:02;;;;;;;20.15;5.90;;;;;;;-4.98;100.00;102427.59;1405967;100;21185;-86
2023/01/12 04:07:29;;;;;;;28.75;5.65;;;;;;;-4.98;100.00;102424.97;1412437;100;21143;-89
2023/01/12 04:09:56;;;;;;;26.10;6.58;;;;;;;-4.96;100.00;102409.93;1451556;97;21213;-87
2023/01/12 08:14:45;;;;;;;38.08;11.20;;;;;;;-5.29;100.00;102381.23;1822479;77;26081;-84
2023/01/12 08:17:18;;;;;;;39.67;11.95;;;;;;;-5.27;100.00;102352.56;1776824;79;21049;-88
2023/01/12 08:19:50;;;;;;;;;;;;;;;-5.14;100.00;102348.57;1767169;80;21089;-83
2023/01/12 08:22:21;;;;;;;32.28;10.98;;;;;;;-4.97;100.00;102345.14;1757584;80;20157;-85
2023/01/12 08:24:53;;;;;;;39.73;11.93;;;;;;;-4.86;100.00;102339.92;1764788;79;21045;-85
2023/01/12 08:27:23;;;;;;;29.57;10.30;;;;;;;-4.74;100.00;102338.99;1776883;80;20985;-84
2023/01/12 08:46:47;;;;;;;32.55;11.48;;;;;;;-4.89;100.00;102325.22;1803156;78;26239;-83
2023/01/12 08:49:15;;;;;;;40.08;9.98;;;;;;;-4.92;100.00;102313.62;1748204;80;21070;-84
2023/01/12 08:51:41;;;;;;;35.45;10.50;;;;;;;-4.74;100.00;102321.90;1758911;80;21217;-82
2023/01/12 08:54:10;;;;;;;35.20;10.43;;;;;;;-4.60;100.00;102307.22;1753052;80;21137;-84
2023/01/12 08:56:37;;;;;;;35.80;9.05;;;;;;;-4.48;100.00;102307.23;1758358;80;21026;-85
2023/01/12 08:59:04;;;;;;;46.83;11.93;;;;;;;-4.44;100.00;102306.89;1729288;80;21189;-84
2023/01/12 09:01:31;;;;;;;27.45;9.53;;;;;;;-4.35;100.00;102315.86;1756713;80;21072;-87
2023/01/12 09:03:58;;;;;;;35.05;10.55;;;;;;;-4.25;100.00;102312.03;1761199;80;21790;-88
2023/01/12 09:06:29;;;;;;;34.88;8.40;;;;;;;-4.14;100.00;102299.70;1761221;80;21095;-85
2023/01/12 09:09:02;;;;;;;27.32;8.88;;;;;;;-4.14;100.00;102306.77;1697463;83;21110;-85
2023/01/12 09:11:31;;;;;;;38.40;10.40;;;;;;;-4.03;100.00;102311.16;1706127;83;21471;-84
2023/01/12 09:13:57;;;;;;;30.77;9.58;;;;;;;-4.03;100.00;102311.16;1703034;82;21054;-83
2023/01/12 09:16:26;;;;;;;25.72;8.40;;;;;;;-4.01;100.00;102303.98;1688769;81;21093;-83
2023/01/12 09:18:52;;;;;;;30.55;9.20;;;;;;;-3.97;100.00;102298.37;1684576;83;21085;-82
2023/01/12 09:21:22;;;;;;;25.50;8.65;;;;;;;-4.07;100.00;102303.99;1708559;83;21040;-84
2023/01/12 09:23:50;;;;;;;24.65;9.03;;;;;;;-3.98;100.00;102297.16;1711071;82;21041;-85
2023/01/12 09:26:24;;;;;;;30.68;8.58;;;;;;;-3.99;100.00;102287.11;1710975;82;20997;-84
2023/01/12 09:28:51;;;;;;;32.50;9.03;;;;;;;-3.96;100.00;102292.62;1671786;84;21153;-88
2023/01/12 09:38:40;;;;;;;23.22;7.75;;;;;;;-3.89;100.00;102291.98;1661999;85;21001;-83
2023/01/12 09:46:57;;;;;;;29.87;8.90;;;;;;;-3.76;100.00;102292.34;1682207;85;21035;-84
2023/01/12 09:47:25;;;;;;;31.87;8.38;;;;;;;-3.78;100.00;102281.91;1684221;84;21082;-82
2023/01/12 09:49:59;;;;;;;40.17;8.75;;;;;;;-3.78;100.00;102280.59;1657879;84;21070;-84
2023/01/12 09:52:31;;;;;;;23.02;8.83;;;;;;;-3.74;100.00;102282.01;1613797;87;22615;-84
2023/01/12 09:54:57;;;;;;;21.17;7.03;;;;;;;-3.68;100.00;102278.91;1598984;88;21049;-84
2023/01/12 09:58:04;;;;;;;31.65;8.45;;;;;;;-3.64;100.00;102277.34;1611821;88;21563;-83
2023/01/12 10:00:31;;;;;;;23.18;8.68;;;;;;;-3.59;100.00;102277.29;1506036;92;21313;-83
2023/01/12 10:03:11;;;;;;;23.83;8.08;;;;;;;-3.70;100.00;102270.77;1512948;92;21129;-83
2023/01/12 10:05:48;;;;;;;30.20;8.68;;;;;;;-3.72;100.00;102276.63;1520689;92;21050;-83
2023/01/12 10:08:39;;;;;;;32.55;9.13;;;;;;;-3.63;100.00;102266.66;1506086;92;21586;-84
2023/01/12 10:20:33;;;;;;;24.52;7.90;;;;;;;-3.69;100.00;102257.45;1499561;92;21105;-84
2023/01/12 10:23:15;;;;;;;21.85;6.72;;;;;;;-3.58;100.00;102253.95;1503475;92;21184;-83
2023/01/12 10:25:55;;;;;;;26.87;7.33;;;;;;;-3.53;100.00;102258.83;1527965;92;21563;-89
2023/01/12 10:28:33;;;;;;;29.60;8.53;;;;;;;-3.48;100.00;102251.39;1388551;102;21556;-84
2023/01/12 10:31:01;;;;;;;26.85;8.00;;;;;;;-3.49;100.00;102253.68;1400389;101;21181;-83
2023/01/12 10:33:31;;;;;;;28.12;7.17;;;;;;;-3.50;100.00;102260.75;1402546;101;21142;-82
2023/01/12 10:36:16;;;;;;;23.98;7.70;;;;;;;-3.47;100.00;102251.28;1400892;101;21676;-83
2023/01/12 10:39:02;;;;;;;19.52;7.28;;;;;;;-3.43;100.00;102251.85;1440559;98;21075;-84
2023/01/12 10:41:32;;;;;;;23.57;7.20;;;;;;;-3.55;100.00;102244.97;1451676;98;21107;-84
2023/01/12 10:44:04;;;;;;;31.95;7.25;;;;;;;-3.52;100.00;102243.39;1450523;98;21673;-84
2023/01/12 10:46:31;;;;;;;23.57;7.08;;;;;;;-3.40;100.00;102240.23;1456386;96;21214;-83
2023/01/12 10:49:22;;;;;;;23.00;7.58;;;;;;;-3.33;100.00;102238.73;1470951;96;21090;-83
2023/01/12 15:28:42;;;;;;;47.70;12.80;;;;;;;-3.63;100.00;102197.14;104471;1280;600111;-84
2023/01/12 15:31:35;;;;;;;41.80;14.60;;;;;;;-3.62;100.00;102190.17;104329;1290;60495;-85
2023/01/12 15:34:01;;;;;;;;;;;;;;;-3.60;100.00;102195.09;103582;1288;60766;-85
2023/01/12 15:36:27;;;;;;;40.90;13.10;;;;;;;-3.61;100.00;102194.66;103450;1293;60350;-86
2023/01/12 15:38:52;;;;;;;35.90;13.60;;;;;;;-3.63;100.00;102190.66;103494;1292;60414;-85
2023/01/12 15:44:37;;;;;;;41.50;13.80;;;;;;;-3.62;100.00;102188.58;103006;1292;600332;-84
2023/01/12 15:47:04;;;;;;;43.50;14.50;;;;;;;-3.62;100.00;102186.17;103342;1289;60878;-86
2023/01/12 15:49:30;;;;;;;37.50;14.60;;;;;;;-3.62;100.00;102188.41;103271;1290;60378;-83
2023/01/12 15:52:14;;;;;;;37.30;13.40;;;;;;;-3.58;100.00;102179.52;102921;1290;601063;-86
2023/01/12 15:58:15;;;;;;;42.30;13.20;;;;;;;-3.59;100.00;102177.46;103245;1289;601598;-84
2023/01/12 16:00:43;;;;;;;37.40;12.50;;;;;;;-3.61;100.00;102179.27;103230;1295;60489;-84
2023/01/12 16:03:13;;;;;;;38.70;13.30;;;;;;;-3.60;100.00;102179.13;103267;1295;61932;-84
2023/01/12 16:05:38;;;;;;;37.10;12.70;;;;;;;-3.62;100.00;102171.72;103219;1289;73747;-85
2023/01/12 16:11:23;;;;;;;49.70;16.70;;;;;;;-3.59;100.00;102170.44;103173;1289;601100;-85
2023/01/12 16:13:50;;;;;;;35.40;13.20;;;;;;;-3.56;100.00;102170.04;103248;1289;60377;-84
2023/01/12 16:16:17;;;;;;;40.30;13.80;;;;;;;-3.54;100.00;102168.25;103611;1285;60422;-86
2023/01/12 16:18:43;;;;;;;37.00;13.30;;;;;;;-3.56;100.00;102166.83;103550;1292;72782;-85
2023/01/12 16:21:21;;;;;;;32.20;12.80;;;;;;;-3.55;100.00;102169.05;103807;1286;60319;-86
2023/01/12 16:23:47;;;;;;;36.30;13.60;;;;;;;-3.55;100.00;102164.13;103660;1287;73893;-86
2023/01/12 16:26:13;;;;;;;43.60;14.90;;;;;;;-3.53;100.00;102166.48;103595;1283;189915;-86
2023/01/12 16:28:38;;;;;;;55.20;20.60;;;;;;;-3.54;100.00;102158.10;103730;1283;60348;-87
2023/01/12 16:31:11;;;;;;;40.50;14.40;;;;;;;-3.56;100.00;102160.01;103813;1283;60201;-85
2023/01/12 16:33:37;;;;;;;40.70;13.00;;;;;;;-3.54;100.00;102161.21;103912;1283;74749;-84
2023/01/12 16:36:03;;;;;;;36.10;14.20;;;;;;;-3.55;100.00;102160.27;103576;1283;60156;-85
2023/01/12 16:38:29;;;;;;;42.10;13.90;;;;;;;-3.57;100.00;102161.46;103709;1283;60382;-85
2023/01/12 16:40:55;;;;;;;43.80;14.70;;;;;;;-3.56;100.00;102163.39;103711;1289;60815;-84
2023/01/12 16:43:22;;;;;;;41.50;14.20;;;;;;;-3.55;100.00;102163.40;106852;1285;58158;-85
2023/01/12 16:45:49;;;;;;;40.90;14.30;;;;;;;-3.54;100.00;102158.29;106791;1285;58333;-87
2023/01/12 16:48:16;;;;;;;39.70;13.40;;;;;;;-3.52;100.00;102155.60;106810;1285;58139;-87
2023/01/12 16:50:42;;;;;;;33.60;13.50;;;;;;;-3.49;100.00;102152.58;106441;1289;58217;-88
2023/01/12 16:53:08;;;;;;;31.40;11.90;;;;;;;-3.45;100.00;102153.64;106845;1285;58055;-91
2023/01/12 16:55:35;;;;;;;34.00;11.80;;;;;;;-3.40;100.00;102150.79;106847;1285;58091;-89
2023/01/12 16:58:02;;;;;;;36.00;12.70;;;;;;;-3.40;100.00;102148.85;106563;1286;58505;-87
2023/01/12 17:00:27;;;;;;;41.00;13.40;;;;;;;-3.38;100.00;102147.97;106708;1286;58231;-84
2023/01/12 17:02:54;;;;;;;35.30;13.40;;;;;;;-3.39;100.00;102146.81;106545;1285;58242;-87
2023/01/12 17:05:30;;;;;;;45.30;12.90;;;;;;;-3.36;100.00;102139.33;106700;1286;58081;-85
2023/01/12 17:07:55;;;;;;;34.00;12.10;;;;;;;-3.29;100.00;102142.31;106657;1286;73915;-87
2023/01/12 17:10:21;;;;;;;36.50;12.30;;;;;;;-3.30;100.00;102141.60;106814;1285;58371;-87
2023/01/12 17:12:46;;;;;;;34.60;12.20;;;;;;;-3.30;100.00;102139.83;106522;1283;58272;-88
2023/01/12 17:15:12;;;;;;;44.90;13.70;;;;;;;-3.25;100.00;102140.86;106972;1283;58205;-85
2023/01/12 17:17:38;;;;;;;40.80;13.20;;;;;;;-3.25;100.00;102139.24;107101;1283;58486;-89
2023/01/12 17:20:04;;;;;;;31.50;12.10;;;;;;;-3.23;100.00;102139.44;106926;1283;74333;-84
2023/01/12 17:22:31;;;;;;;36.30;12.60;;;;;;;-3.24;100.00;102142.21;107052;1283;58574;-86
2023/01/12 17:24:57;;;;;;;37.40;11.30;;;;;;;-3.27;100.00;102136.48;107025;1283;62863;-87
2023/01/12 17:27:24;;;;;;;29.40;10.60;;;;;;;-3.23;100.00;102137.21;106793;1286;61384;-88
2023/01/12 17:29:50;;;;;;;32.10;11.20;;;;;;;-3.24;100.00;102137.22;106754;1286;58087;-87
2023/01/12 17:32:16;;;;;;;34.70;11.70;;;;;;;-3.21;100.00;102137.52;106450;1286;58284;-86
2023/01/12 17:34:42;;;;;;;30.50;11.10;;;;;;;-3.12;100.00;102142.62;106507;1286;58262;-90
2023/01/12 17:37:09;;;;;;;31.80;10.60;;;;;;;-3.17;100.00;102134.94;106337;1286;58224;-90
2023/01/12 17:39:38;;;;;;;29.50;10.10;;;;;;;-3.19;100.00;102134.05;106456;1286;58101;-89
2023/01/12 17:44:48;;;;;;;25.80;9.00;;;;;;;-3.14;100.00;102133.64;106599;1286;73959;-87
2023/01/12 17:47:14;;;;;;;29.40;10.00;;;;;;;-3.17;100.00;102132.15;106543;1286;58200;-86
2023/01/12 17:49:39;;;;;;;26.90;9.60;;;;;;;-3.19;100.00;102126.29;106437;1287;58192;-88
2023/01/12 17:52:05;;;;;;;22.90;9.60;;;;;;;-3.17;100.00;102128.45;106685;1286;58458;-87
2023/01/12 17:54:30;;;;;;;24.20;8.90;;;;;;;-3.13;100.00;102123.90;106605;1286;58178;-86
2023/01/12 17:56:56;;;;;;;28.70;10.50;;;;;;;-3.12;100.00;102118.33;106306;1291;72645;-86
2023/01/12 17:59:24;;;;;;;28.80;9.90;;;;;;;-3.13;100.00;102115.77;106217;1290;58193;-85
2023/01/12 18:01:50;;;;;;;37.30;10.80;;;;;;;-3.11;100.00;102113.30;106307;1290;61109;-87
2023/01/12 18:04:19;;;;;;;33.70;10.00;;;;;;;-3.12;100.00;102117.11;106515;1286;58327;-86
2023/01/12 18:06:45;;;;;;;29.70;10.00;;;;;;;-3.12;100.00;102119.20;106722;1286;74001;-87
2023/01/12 18:09:13;;;;;;;34.50;10.70;;;;;;;-3.08;100.00;102120.28;106400;1286;58222;-86
2023/01/12 18:11:39;;;;;;;26.90;9.70;;;;;;;-3.09;100.00;102116.52;106412;1287;61983;-87
2023/01/12 18:14:08;;;;;;;23.50;9.80;;;;;;;-3.12;100.00;102107.59;106279;1290;58171;-84
2023/01/12 18:16:37;;;;;;;25.50;9.60;;;;;;;-3.12;100.00;102103.59;106225;1290;73652;-86
2023/01/12 18:19:09;;;;;;;27.20;10.50;;;;;;;-3.10;100.00;102096.88;106131;1291;74245;-86
2023/01/12 18:21:35;;;;;;;26.70;9.50;;;;;;;-3.10;100.00;102104.77;106218;1290;74284;-86
2023/01/12 18:24:01;;;;;;;36.10;11.80;;;;;;;-3.11;100.00;102102.79;106197;1291;58216;-86
2023/01/12 18:26:29;;;;;;;32.80;11.70;;;;;;;-3.09;100.00;102097.85;106154;1292;58300;-86
2023/01/12 18:28:56;;;;;;;30.50;11.30;;;;;;;-3.12;100.00;102095.80;106197;1290;73943;-86
2023/01/12 18:31:24;;;;;;;40.30;13.10;;;;;;;-3.10;100.00;102093.88;106186;1291;73470;-86
2023/01/12 18:33:55;;;;;;;38.30;12.40;;;;;;;-3.13;100.00;102087.27;106110;1291;73205;-86
2023/01/12 18:36:23;;;;;;;39.20;14.50;;;;;;;-3.08;100.00;102085.27;106244;1291;61705;-86
2023/01/12 18:38:50;;;;;;;40.10;14.90;;;;;;;-3.08;100.00;102081.27;106162;1291;60238;-86
2023/01/12 18:44:03;;;;;;;45.00;16.70;;;;;;;-3.07;100.00;102083.60;106232;1292;72234;-86
2023/01/12 18:49:14;;;;;;;67.80;19.70;;;;;;;-3.04;100.00;102086.18;106035;1292;62014;-86
2023/01/12 18:54:23;;;;;;;62.70;21.50;;;;;;;-3.04;100.00;102080.56;106306;1288;71803;-86
2023/01/12 18:56:50;;;;;;;64.10;22.00;;;;;;;-3.02;100.00;102081.59;106439;1287;58247;-86
2023/01/12 18:59:16;;;;;;;66.00;21.40;;;;;;;-3.03;100.00;102086.94;106293;1286;58359;-86
2023/01/12 19:01:42;;;;;;;68.10;22.10;;;;;;;-2.95;100.00;102085.22;106235;1287;58501;-86
2023/01/12 19:04:08;;;;;;;63.80;20.80;;;;;;;-2.98;100.00;102087.41;106555;1286;58020;-86
2023/01/12 19:06:44;;;;;;;66.40;21.20;;;;;;;-2.98;100.00;102089.83;106672;1286;58177;-86
2023/01/12 19:11:55;;;;;;;61.70;20.00;;;;;;;-2.97;100.00;102089.02;106778;1284;72509;-86
2023/01/12 19:19:49;;;;;;;60.10;20.30;;;;;;;-2.85;100.00;102088.52;107083;1284;72676;-86
2023/01/12 19:30:42;;;;;;;43.50;15.40;;;;;;;-2.85;100.00;102081.73;106979;1285;59167;-86
2023/01/12 19:33:12;;;;;;;38.20;14.40;;;;;;;-2.83;100.00;102082.92;106930;1285;58200;-86
2023/01/12 19:35:42;;;;;;;36.60;13.60;;;;;;;-2.82;100.00;102086.20;106928;1284;74141;-87
2023/01/12 19:38:08;;;;;;;35.50;11.20;;;;;;;-2.84;100.00;102083.89;106951;1284;73546;-87
2023/01/12 19:40:43;;;;;;;36.80;11.90;;;;;;;-2.84;100.00;102088.61;106951;1284;58737;-86
2023/01/12 19:45:42;;;;;;;30.00;11.60;;;;;;;-2.80;100.00;102089.48;106789;1286;71168;-87
2023/01/12 19:48:09;;;;;;;29.50;10.90;;;;;;;-2.77;100.00;102094.29;107059;1284;74781;-86
2023/01/12 19:50:35;;;;;;;32.80;11.20;;;;;;;-2.75;100.00;102091.83;106643;1286;73341;-85
2023/01/12 19:53:02;;;;;;;29.70;8.80;;;;;;;-2.72;100.00;102095.33;106889;1284;58226;-86
2023/01/12 19:55:29;;;;;;;37.70;10.60;;;;;;;-2.68;100.00;102095.45;106941;1284;58028;-85
2023/01/12 19:57:55;;;;;;;35.90;8.80;;;;;;;-2.61;100.00;102097.89;106871;1285;72764;-83
2023/01/12 20:00:21;;;;;;;18.20;6.20;;;;;;;-2.63;100.00;102101.91;106776;1284;74324;-86
2023/01/12 20:02:47;;;;;;;25.10;6.60;;;;;;;-2.65;100.00;102104.57;106785;1285;58195;-87
2023/01/12 20:05:21;;;;;;;14.90;5.60;;;;;;;-2.67;100.00;102108.40;106416;1288;58257;-86
2023/01/12 20:07:49;;;;;;;22.70;6.00;;;;;;;-2.65;100.00;102106.80;106338;1287;60507;-86
2023/01/12 20:10:15;;;;;;;18.30;6.60;;;;;;;-2.68;100.00;102105.47;106323;1289;73891;-86
2023/01/12 20:12:40;;;;;;;28.50;5.30;;;;;;;-2.65;100.00;102106.62;106169;1291;58308;-87
2023/01/12 20:15:07;;;;;;;14.90;4.90;;;;;;;-2.62;100.00;102107.91;106135;1291;58232;-85
2023/01/12 20:17:33;;;;;;;20.60;6.00;;;;;;;-2.59;100.00;102107.17;105869;1291;58276;-86
2023/01/12 20:19:59;;;;;;;20.60;6.30;;;;;;;-2.58;100.00;102100.79;106062;1291;58288;-86
2023/01/12 20:22:25;;;;;;;21.00;6.20;;;;;;;-2.57;100.00;102101.86;106191;1291;58709;-86
2023/01/12 20:24:50;;;;;;;31.00;8.10;;;;;;;-2.57;100.00;102098.50;106072;1291;58359;-87
2023/01/12 20:27:16;;;;;;;27.80;7.60;;;;;;;-2.55;100.00;102099.23;106123;1291;62664;-85
2023/01/12 20:29:41;;;;;;;20.90;7.60;;;;;;;-2.53;100.00;102098.90;106072;1291;58425;-86
2023/01/12 20:32:07;;;;;;;28.30;7.60;;;;;;;-2.50;100.00;102100.92;106117;1291;58703;-86
2023/01/12 20:34:33;;;;;;;20.20;6.30;;;;;;;-2.46;100.00;102098.80;106046;1291;59203;-86
2023/01/12 20:36:59;;;;;;;13.10;5.30;;;;;;;-2.43;100.00;102099.45;106403;1287;58367;-86
2023/01/12 20:39:25;;;;;;;16.60;5.30;;;;;;;-2.41;100.00;102102.26;106458;1287;58466;-87
2023/01/12 20:41:51;;;;;;;26.90;7.40;;;;;;;-2.39;100.00;102106.77;106560;1288;74708;-86
2023/01/12 20:44:18;;;;;;;19.10;5.70;;;;;;;-2.36;100.00;102106.73;106637;1285;58273;-87
2023/01/12 20:46:44;;;;;;;24.40;6.30;;;;;;;-2.35;100.00;102103.98;106743;1285;71734;-87
2023/01/12 20:49:10;;;;;;;15.10;4.80;;;;;;;-2.35;100.00;102103.78;106794;1285;58198;-86
2023/01/12 20:51:36;;;;;;;16.50;5.30;;;;;;;-2.34;100.00;102100.20;106489;1285;58737;-86
2023/01/12 20:54:03;;;;;;;23.10;5.60;;;;;;;-2.36;100.00;102099.14;106413;1288;58353;-86
2023/01/12 20:56:28;;;;;;;18.50;5.20;;;;;;;-2.37;100.00;102095.88;106416;1288;58327;-86
2023/01/12 20:58:56;;;;;;;20.90;5.90;;;;;;;-2.36;100.00;102094.05;106266;1288;58714;-86
2023/01/12 21:01:23;;;;;;;15.50;4.80;;;;;;;-2.38;100.00;102087.33;106365;1288;58233;-87
2023/01/12 21:03:49;;;;;;;21.90;5.50;;;;;;;-2.36;100.00;102086.13;106456;1287;58714;-86
2023/01/12 21:06:16;;;;;;;16.30;5.20;;;;;;;-2.35;100.00;102081.13;106061;1291;58459;-86
2023/01/12 21:08:43;;;;;;;17.70;5.50;;;;;;;-2.36;100.00;102079.60;106022;1291;58349;-87
2023/01/12 21:11:15;;;;;;;14.50;4.80;;;;;;;-2.39;100.00;102079.84;106275;1291;58446;-85
2023/01/12 21:13:40;;;;;;;16.20;5.10;;;;;;;-2.36;100.00;102076.93;106133;1294;60808;-85
2023/01/12 21:16:11;;;;;;;17.60;5.00;;;;;;;-2.31;100.00;102076.56;106101;1291;58451;-84
2023/01/12 21:18:36;;;;;;;14.60;4.50;;;;;;;-2.32;100.00;102073.64;106263;1291;74552;-83
2023/01/12 21:21:03;;;;;;;17.00;4.40;;;;;;;-2.34;100.00;102073.97;106161;1291;58714;-84
2023/01/12 21:23:28;;;;;;;14.90;5.40;;;;;;;-2.30;100.00;102076.91;106169;1291;58389;-84
2023/01/12 21:25:54;;;;;;;23.10;6.00;;;;;;;-2.29;100.00;102075.30;106352;1288;58340;-84
2023/01/12 21:28:21;;;;;;;14.30;5.10;;;;;;;-2.27;100.00;102075.48;106245;1288;58280;-84
2023/01/12 21:30:47;;;;;;;18.00;5.80;;;;;;;-2.27;100.00;102072.09;106315;1288;58316;-84
2023/01/12 21:33:13;;;;;;;18.10;5.90;;;;;;;-2.26;100.00;102064.42;106259;1288;58874;-84
2023/01/12 21:35:38;;;;;;;19.20;5.30;;;;;;;-2.28;100.00;102063.71;106137;1288;59456;-85